createdAt,value
2023-01-03T00:00:16.535Z,68.44
2023-01-03T00:02:48.576Z,68.32
2023-01-03T00:05:20.557Z,68.19
2023-01-03T00:07:52.430Z,68.23
2023-01-03T00:10:24.337Z,68.14
2023-01-03T00:12:57.705Z,67.98
2023-01-03T00:15:29.855Z,68.08
2023-01-03T00:18:01.911Z,67.80
2023-01-03T00:20:35.640Z,67.75
2023-01-03T00:23:07.518Z,67.61
2023-01-03T00:25:39.506Z,67.96
2023-01-03T00:28:11.442Z,68.01
2023-01-03T00:30:43.414Z,68.04
2023-01-03T00:33:15.474Z,68.09
2023-01-03T00:35:47.463Z,68.10
2023-01-03T00:38:19.394Z,68.14
2023-01-03T00:40:51.249Z,67.96
2023-01-03T00:43:32.069Z,67.98
2023-01-03T00:46:05.150Z,67.86
2023-01-03T00:48:37.766Z,67.89
2023-01-03T00:51:12.086Z,67.99
2023-01-03T00:53:56.229Z,67.92
2023-01-03T00:56:30.782Z,67.83
2023-01-03T00:59:02.764Z,67.83
2023-01-03T01:01:45.812Z,67.81
2023-01-03T01:04:14.196Z,67.80
2023-01-03T01:06:48.585Z,67.74
2023-01-03T01:09:24.082Z,67.60
2023-01-03T01:11:56.358Z,67.53
2023-01-03T01:14:30.413Z,67.50
2023-01-03T01:17:03.176Z,67.45
2023-01-03T01:19:37.865Z,67.88
2023-01-03T01:22:10.394Z,67.47
2023-01-03T01:24:42.726Z,67.59
2023-01-03T01:27:14.760Z,67.65
2023-01-03T01:29:46.616Z,67.67
2023-01-03T01:32:18.550Z,67.70
2023-01-03T01:34:50.528Z,67.68
2023-01-03T01:37:22.649Z,67.72
2023-01-03T01:39:54.719Z,67.50
2023-01-03T01:42:43.359Z,67.58
2023-01-03T01:45:15.821Z,67.45
2023-01-03T01:48:02.427Z,67.41
2023-01-03T01:50:43.825Z,67.34
2023-01-03T01:53:24.373Z,67.29
2023-01-03T01:55:59.176Z,67.17
2023-01-03T01:58:33.945Z,67.12
2023-01-03T02:01:08.413Z,67.05
2023-01-03T02:03:42.312Z,67.04
2023-01-03T02:06:16.398Z,66.91
2023-01-03T02:08:48.252Z,66.65
2023-01-03T02:11:54.465Z,66.52
2023-01-03T02:14:32.326Z,66.33
2023-01-03T02:17:24.178Z,66.26
2023-01-03T02:20:19.719Z,66.10
2023-01-03T02:23:11.039Z,66.11
2023-01-03T02:26:01.929Z,66.06
2023-01-03T02:28:45.216Z,66.01
2023-01-03T02:31:25.874Z,65.82
2023-01-03T02:34:33.028Z,65.71
2023-01-03T02:37:16.549Z,65.74
2023-01-03T02:39:57.045Z,65.80
2023-01-03T02:42:58.780Z,65.89
2023-01-03T02:45:33.737Z,65.85
2023-01-03T02:48:14.730Z,65.73
2023-01-03T02:50:55.358Z,65.63
2023-01-03T02:53:30.338Z,65.61
2023-01-03T02:56:05.313Z,65.49
2023-01-03T02:58:39.406Z,65.42
2023-01-03T03:01:13.713Z,65.07
2023-01-03T03:03:48.316Z,64.89
2023-01-03T03:06:44.237Z,64.86
2023-01-03T03:09:16.396Z,64.90
2023-01-03T03:12:07.528Z,64.74
2023-01-03T03:14:42.395Z,64.63
2023-01-03T03:17:26.430Z,65.28
2023-01-03T03:20:17.189Z,66.30
2023-01-03T03:23:12.160Z,66.87
2023-01-03T03:25:55.533Z,67.73
2023-01-03T03:28:36.154Z,68.57
2023-01-03T03:31:25.900Z,69.50
2023-01-03T03:34:20.438Z,70.24
2023-01-03T03:37:06.700Z,70.85
2023-01-03T03:39:56.988Z,71.69
2023-01-03T03:42:50.952Z,72.11
2023-01-03T03:45:31.555Z,72.39
2023-01-03T03:48:12.233Z,73.17
2023-01-03T03:51:03.366Z,73.71
2023-01-03T03:53:38.905Z,74.15
2023-01-03T03:56:13.812Z,74.25
2023-01-03T03:58:51.542Z,74.59
2023-01-03T04:01:26.382Z,75.20
2023-01-03T04:04:01.370Z,75.50
2023-01-03T04:06:38.709Z,75.58
2023-01-03T04:09:10.875Z,76.11
2023-01-03T04:11:43.224Z,76.41
2023-01-03T04:14:15.467Z,76.59
2023-01-03T04:16:47.507Z,76.80
2023-01-03T04:19:19.381Z,77.17
2023-01-03T04:21:51.404Z,77.40
2023-01-03T04:24:23.576Z,77.77
2023-01-03T04:26:55.714Z,77.73
2023-01-03T04:29:27.681Z,77.68
2023-01-03T04:31:59.652Z,78.06
2023-01-03T04:34:31.915Z,78.29
2023-01-03T04:37:03.924Z,78.48
2023-01-03T04:39:36.025Z,78.09
2023-01-03T04:42:09.629Z,78.16
2023-01-03T04:44:41.649Z,77.63
2023-01-03T04:47:13.890Z,78.05
2023-01-03T04:49:47.392Z,78.37
2023-01-03T04:52:20.337Z,78.56
2023-01-03T04:54:52.546Z,77.96
2023-01-03T04:57:24.469Z,78.30
2023-01-03T04:59:56.357Z,78.41
2023-01-03T05:02:28.719Z,78.86
2023-01-03T05:05:00.749Z,79.01
2023-01-03T05:07:33.004Z,78.97
2023-01-03T05:10:05.156Z,79.08
2023-01-03T05:12:37.141Z,79.23
2023-01-03T05:15:10.044Z,79.36
2023-01-03T05:17:42.050Z,79.65
2023-01-03T05:20:31.792Z,79.73
2023-01-03T05:23:21.605Z,79.55
2023-01-03T05:25:53.558Z,79.46
2023-01-03T05:28:25.829Z,79.60
2023-01-03T05:30:59.967Z,79.44
2023-01-03T05:33:31.921Z,79.20
2023-01-03T05:36:03.922Z,78.59
2023-01-03T05:38:35.891Z,79.01
2023-01-03T05:41:08.170Z,79.18
2023-01-03T05:43:40.062Z,79.67
2023-01-03T05:46:12.034Z,79.44
2023-01-03T05:48:44.940Z,79.63
2023-01-03T05:51:17.021Z,79.47
2023-01-03T05:53:49.778Z,79.56
2023-01-03T05:56:21.927Z,79.82
2023-01-03T05:58:53.894Z,79.89
2023-01-03T06:01:27.401Z,80.15
2023-01-03T06:03:59.521Z,79.74
2023-01-03T06:06:31.582Z,79.61
2023-01-03T06:09:03.551Z,79.26
2023-01-03T06:11:35.567Z,79.61
2023-01-03T06:14:08.176Z,79.61
2023-01-03T06:16:57.823Z,79.62
2023-01-03T06:19:29.839Z,79.92
2023-01-03T06:22:07.064Z,80.26
2023-01-03T06:24:35.981Z,80.49
2023-01-03T06:27:08.380Z,80.53
2023-01-03T06:29:40.749Z,80.26
2023-01-03T06:32:12.765Z,80.29
2023-01-03T06:34:44.590Z,80.66
2023-01-03T06:37:16.662Z,80.71
2023-01-03T06:39:48.539Z,80.70
2023-01-03T06:42:38.417Z,80.39
2023-01-03T06:45:30.051Z,80.26
2023-01-03T06:48:24.176Z,80.63
2023-01-03T06:51:14.052Z,80.70
2023-01-03T06:53:45.981Z,80.42
2023-01-03T06:56:18.530Z,80.39
2023-01-03T06:58:50.779Z,80.65
2023-01-03T07:01:22.959Z,80.32
2023-01-03T07:03:55.140Z,80.72
2023-01-03T07:06:29.145Z,80.47
2023-01-03T07:09:01.457Z,80.63
2023-01-03T07:11:33.701Z,80.92
2023-01-03T07:14:07.134Z,80.77
2023-01-03T07:16:42.449Z,80.83
2023-01-03T07:19:20.956Z,80.50
2023-01-03T07:21:52.951Z,80.82
2023-01-03T07:24:24.983Z,80.65
2023-01-03T07:26:57.084Z,80.83
2023-01-03T07:29:29.221Z,81.04
2023-01-03T07:32:01.125Z,80.99
2023-01-03T07:34:33.345Z,81.29
2023-01-03T07:37:05.322Z,81.12
2023-01-03T07:39:37.345Z,81.32
2023-01-03T07:42:27.461Z,81.05
2023-01-03T07:44:59.469Z,81.03
2023-01-03T07:47:32.186Z,81.05
2023-01-03T07:50:04.494Z,81.04
2023-01-03T07:52:37.136Z,81.27
2023-01-03T07:55:09.527Z,80.92
2023-01-03T07:57:42.606Z,80.96
2023-01-03T08:00:15.196Z,81.20
2023-01-03T08:02:48.400Z,81.33
2023-01-03T08:05:20.421Z,81.22
2023-01-03T08:07:53.264Z,80.91
2023-01-03T08:10:42.903Z,81.06
2023-01-03T08:13:20.584Z,81.17
2023-01-03T08:15:55.505Z,80.99
2023-01-03T08:18:29.301Z,81.15
2023-01-03T08:21:01.551Z,81.14
2023-01-03T08:23:33.627Z,80.86
2023-01-03T08:26:08.469Z,80.99
2023-01-03T08:28:41.439Z,81.00
2023-01-03T08:31:16.410Z,81.02
2023-01-03T08:33:57.711Z,80.95
2023-01-03T08:36:32.896Z,80.99
2023-01-03T08:39:10.812Z,81.03
2023-01-03T08:41:46.010Z,81.09
2023-01-03T08:44:18.296Z,80.83
2023-01-03T08:46:53.651Z,80.89
2023-01-03T08:49:26.355Z,80.95
2023-01-03T08:51:58.362Z,80.89
2023-01-03T08:54:30.282Z,80.94
2023-01-03T08:57:02.220Z,81.11
2023-01-03T08:59:34.821Z,81.17
2023-01-03T09:02:07.239Z,81.34
2023-01-03T09:04:40.477Z,81.48
2023-01-03T09:07:13.046Z,81.43
2023-01-03T09:09:45.123Z,81.44
2023-01-03T09:12:17.178Z,81.45
2023-01-03T09:14:49.152Z,81.47
2023-01-03T09:17:21.322Z,81.60
2023-01-03T09:19:53.544Z,81.74
2023-01-03T09:22:25.728Z,81.79
2023-01-03T09:24:57.815Z,81.88
2023-01-03T09:27:29.781Z,81.81
2023-01-03T09:30:02.035Z,81.94
2023-01-03T09:32:34.012Z,81.92
2023-01-03T09:35:06.369Z,81.92
2023-01-03T09:37:42.733Z,81.79
2023-01-03T09:40:13.369Z,81.95
2023-01-03T09:43:03.198Z,82.01
2023-01-03T09:45:36.103Z,82.05
2023-01-03T09:48:08.973Z,82.03
2023-01-03T09:51:14.945Z,82.08
2023-01-03T09:53:39.515Z,82.23
2023-01-03T09:56:31.314Z,82.24
2023-01-03T09:59:33.043Z,82.27
2023-01-03T10:02:51.156Z,82.32
2023-01-03T10:05:26.214Z,82.40
2023-01-03T10:08:04.237Z,82.38
2023-01-03T10:10:47.902Z,82.32
2023-01-03T10:13:41.032Z,82.33
2023-01-03T10:16:40.370Z,82.40
2023-01-03T10:19:23.972Z,82.45
2023-01-03T10:21:59.083Z,82.42
2023-01-03T10:24:34.528Z,82.52
2023-01-03T10:27:22.635Z,82.66
2023-01-03T10:29:57.532Z,82.75
2023-01-03T10:32:51.789Z,82.72
2023-01-03T10:35:26.485Z,82.68
2023-01-03T10:37:59.311Z,82.75
2023-01-03T10:40:39.823Z,82.78
2023-01-03T10:43:29.580Z,82.83
2023-01-03T10:46:16.859Z,82.87
2023-01-03T10:49:26.576Z,82.87
2023-01-03T10:51:45.579Z,82.89
2023-01-03T10:54:23.503Z,82.87
2023-01-03T10:56:55.512Z,82.83
2023-01-03T10:59:30.815Z,82.76
2023-01-03T11:02:16.851Z,82.73
2023-01-03T11:04:49.506Z,82.71
2023-01-03T11:07:21.656Z,82.72
2023-01-03T11:09:56.212Z,82.60
2023-01-03T11:12:39.751Z,82.69
2023-01-03T11:15:38.760Z,82.66
2023-01-03T11:18:20.757Z,82.63
2023-01-03T11:20:55.761Z,82.50
2023-01-03T11:23:30.620Z,82.49
2023-01-03T11:26:20.517Z,82.40
2023-01-03T11:28:58.345Z,82.34
2023-01-03T11:31:54.040Z,82.30
2023-01-03T11:35:21.412Z,82.32
2023-01-03T11:37:46.103Z,82.40
2023-01-03T11:40:29.681Z,82.40
2023-01-03T11:43:19.765Z,82.35
2023-01-03T11:46:15.872Z,82.37
2023-01-03T11:49:14.714Z,82.42
2023-01-03T11:52:10.323Z,82.47
2023-01-03T11:55:18.125Z,82.44
2023-01-03T11:57:58.730Z,82.58
2023-01-03T12:00:39.757Z,82.64
2023-01-03T12:03:23.524Z,82.59
2023-01-03T12:06:23.606Z,82.59
2023-01-03T12:09:08.183Z,82.69
2023-01-03T12:12:03.911Z,82.68
2023-01-03T12:14:38.739Z,82.66
2023-01-03T12:17:30.605Z,82.80
2023-01-03T12:20:11.116Z,82.91
2023-01-03T12:22:46.097Z,82.90
2023-01-03T12:25:30.090Z,82.95
2023-01-03T12:28:05.038Z,83.21
2023-01-03T12:30:49.733Z,83.33
2023-01-03T12:33:33.919Z,83.16
2023-01-03T12:36:28.164Z,83.16
2023-01-03T12:39:27.532Z,83.28
2023-01-03T12:42:07.861Z,83.25
2023-01-03T12:44:45.647Z,83.26
2023-01-03T12:47:42.103Z,83.38
2023-01-03T12:50:20.240Z,83.46
2023-01-03T12:52:55.219Z,83.52
2023-01-03T12:55:47.789Z,83.65
2023-01-03T12:58:22.855Z,83.81
2023-01-03T13:01:16.619Z,83.83
2023-01-03T13:03:54.738Z,84.01
2023-01-03T13:06:32.825Z,84.07
2023-01-03T13:09:07.721Z,84.29
2023-01-03T13:11:51.148Z,84.38
2023-01-03T13:14:26.035Z,84.55
2023-01-03T13:17:11.281Z,84.62
2023-01-03T13:19:54.788Z,84.75
2023-01-03T13:22:49.175Z,84.73
2023-01-03T13:25:40.038Z,84.70
2023-01-03T13:28:24.872Z,84.56
2023-01-03T13:31:15.677Z,84.42
2023-01-03T13:33:56.346Z,84.37
2023-01-03T13:36:31.908Z,84.03
2023-01-03T13:39:05.397Z,84.07
2023-01-03T13:41:39.834Z,84.30
2023-01-03T13:44:23.479Z,84.45
2023-01-03T13:46:56.561Z,84.63
2023-01-03T13:49:30.087Z,84.67
2023-01-03T13:52:03.802Z,84.81
2023-01-03T13:54:38.331Z,85.01
2023-01-03T13:57:24.885Z,85.07
2023-01-03T14:00:01.891Z,85.06
2023-01-03T14:02:53.450Z,85.05
2023-01-03T14:05:47.621Z,85.06
2023-01-03T14:08:35.376Z,84.94
2023-01-03T14:11:26.467Z,84.85
2023-01-03T14:14:07.358Z,84.98
2023-01-03T14:16:48.787Z,84.97
2023-01-03T14:19:26.646Z,84.96
2023-01-03T14:22:27.637Z,85.07
2023-01-03T14:24:52.817Z,84.76
2023-01-03T14:27:36.431Z,84.68
2023-01-03T14:30:26.344Z,84.45
2023-01-03T14:33:00.408Z,84.90
2023-01-03T14:35:44.796Z,84.92
2023-01-03T14:38:28.298Z,85.03
2023-01-03T14:41:01.859Z,85.05
2023-01-03T14:43:36.028Z,84.69
2023-01-03T14:46:10.887Z,84.48
2023-01-03T14:48:46.311Z,84.71
2023-01-03T14:51:19.978Z,84.71
2023-01-03T14:53:53.917Z,84.93
2023-01-03T14:56:30.759Z,85.08
2023-01-03T14:59:04.615Z,85.05
2023-01-03T15:01:40.042Z,84.91
2023-01-03T15:04:31.795Z,84.87
2023-01-03T15:07:11.247Z,84.77
2023-01-03T15:09:38.601Z,83.88
2023-01-03T15:12:18.765Z,83.47
2023-01-03T15:14:54.020Z,83.65
2023-01-03T15:17:28.301Z,83.23
2023-01-03T15:20:00.677Z,83.39
2023-01-03T15:22:36.394Z,83.56
2023-01-03T15:25:23.829Z,83.79
2023-01-03T15:27:57.263Z,83.91
2023-01-03T15:30:31.808Z,84.01
2023-01-03T15:33:26.154Z,84.02
2023-01-03T15:36:02.190Z,84.25
2023-01-03T15:38:35.399Z,84.14
2023-01-03T15:41:23.738Z,83.80
2023-01-03T15:43:59.102Z,83.34
2023-01-03T15:46:33.697Z,82.92
2023-01-03T15:49:10.477Z,83.00
2023-01-03T15:51:43.664Z,83.25
2023-01-03T15:54:17.686Z,83.36
2023-01-03T15:57:07.115Z,83.18
2023-01-03T15:59:45.605Z,82.69
2023-01-03T16:02:32.928Z,82.85
2023-01-03T16:05:07.200Z,83.08
2023-01-03T16:07:40.552Z,83.10
2023-01-03T16:10:14.388Z,83.23
2023-01-03T16:12:47.431Z,83.14
2023-01-03T16:15:23.634Z,83.37
2023-01-03T16:17:55.832Z,83.56
2023-01-03T16:20:30.055Z,82.97
2023-01-03T16:23:03.326Z,82.64
2023-01-03T16:25:37.734Z,82.56
2023-01-03T16:28:12.620Z,82.77
2023-01-03T16:31:08.384Z,82.56
2023-01-03T16:33:44.078Z,81.76
2023-01-03T16:36:41.960Z,81.64
2023-01-03T16:39:19.886Z,81.62
2023-01-03T16:42:10.928Z,81.33
2023-01-03T16:44:46.707Z,81.41
2023-01-03T16:47:23.711Z,81.61
2023-01-03T16:50:01.055Z,81.50
2023-01-03T16:52:42.749Z,81.11
2023-01-03T16:55:30.588Z,81.36
2023-01-03T16:58:02.823Z,81.76
2023-01-03T17:00:37.177Z,81.92
2023-01-03T17:03:09.843Z,81.91
2023-01-03T17:05:44.105Z,82.11
2023-01-03T17:08:20.729Z,82.27
2023-01-03T17:11:01.331Z,82.53
2023-01-03T17:13:44.422Z,82.53
2023-01-03T17:16:20.066Z,82.53
2023-01-03T17:18:53.681Z,82.48
2023-01-03T17:21:35.344Z,82.42
2023-01-03T17:24:10.698Z,82.18
2023-01-03T17:26:43.851Z,81.99
2023-01-03T17:29:23.979Z,82.06
2023-01-03T17:31:56.654Z,81.75
2023-01-03T17:34:33.302Z,81.68
2023-01-03T17:37:09.773Z,81.70
2023-01-03T17:39:41.998Z,82.00
2023-01-03T17:42:18.762Z,81.99
2023-01-03T17:45:10.183Z,81.53
2023-01-03T17:48:02.723Z,81.39
2023-01-03T17:50:35.304Z,81.68
2023-01-03T17:53:09.230Z,81.68
2023-01-03T17:55:45.925Z,82.21
2023-01-03T17:58:34.348Z,82.37
2023-01-03T18:01:09.175Z,82.61
2023-01-03T18:03:42.341Z,82.87
2023-01-03T18:06:17.679Z,82.88
2023-01-03T18:08:54.102Z,83.15
2023-01-03T18:11:28.517Z,83.12
2023-01-03T18:14:05.191Z,83.09
2023-01-03T18:16:37.423Z,83.13
2023-01-03T18:19:09.993Z,82.97
2023-01-03T18:21:54.903Z,83.19
2023-01-03T18:24:31.913Z,83.15
2023-01-03T18:27:04.873Z,83.31
2023-01-03T18:29:39.042Z,83.44
2023-01-03T18:32:29.256Z,83.52
2023-01-03T18:35:02.818Z,83.59
2023-01-03T18:37:37.706Z,83.64
2023-01-03T18:40:19.892Z,83.66
2023-01-03T18:43:14.359Z,83.49
2023-01-03T18:45:46.809Z,83.10
2023-01-03T18:48:21.863Z,83.49
2023-01-03T18:50:59.043Z,83.46
2023-01-03T18:53:31.925Z,82.94
2023-01-03T18:56:04.567Z,83.19
2023-01-03T18:58:39.955Z,83.29
2023-01-03T19:01:12.081Z,83.20
2023-01-03T19:03:44.921Z,82.95
2023-01-03T19:06:42.994Z,82.89
2023-01-03T19:09:18.373Z,82.94
2023-01-03T19:11:51.368Z,82.99
2023-01-03T19:14:23.786Z,82.59
2023-01-03T19:16:56.356Z,82.56
2023-01-03T19:19:28.687Z,82.91
2023-01-03T19:22:00.689Z,82.58
2023-01-03T19:24:38.914Z,82.91
2023-01-03T19:27:18.440Z,83.01
2023-01-03T19:29:51.641Z,82.92
2023-01-03T19:32:29.218Z,82.90
2023-01-03T19:35:01.056Z,82.43
2023-01-03T19:37:33.232Z,82.78
2023-01-03T19:40:05.600Z,82.60
2023-01-03T19:42:49.894Z,83.01
2023-01-03T19:45:36.693Z,83.10
2023-01-03T19:48:26.584Z,82.60
2023-01-03T19:50:58.538Z,82.84
2023-01-03T19:53:30.583Z,82.06
2023-01-03T19:56:03.925Z,82.12
2023-01-03T19:58:38.886Z,81.70
2023-01-03T20:01:14.031Z,81.65
2023-01-03T20:03:46.430Z,81.97
2023-01-03T20:06:19.744Z,82.26
2023-01-03T20:08:53.389Z,82.62
2023-01-03T20:11:25.350Z,82.51
2023-01-03T20:13:57.571Z,81.74
2023-01-03T20:16:29.972Z,81.76
2023-01-03T20:19:02.750Z,81.33
2023-01-03T20:21:34.943Z,81.69
2023-01-03T20:24:08.420Z,81.21
2023-01-03T20:26:43.080Z,80.59
2023-01-03T20:29:16.154Z,80.67
2023-01-03T20:31:50.218Z,81.04
2023-01-03T20:34:21.909Z,80.48
2023-01-03T20:36:56.214Z,79.44
2023-01-03T20:39:36.059Z,79.44
2023-01-03T20:42:11.716Z,79.59
2023-01-03T20:44:47.399Z,79.51
2023-01-03T20:47:23.266Z,79.85
2023-01-03T20:49:55.486Z,79.78
2023-01-03T20:52:27.695Z,79.77
2023-01-03T20:55:00.501Z,79.23
2023-01-03T20:57:32.524Z,79.52
2023-01-03T21:00:05.520Z,79.01
2023-01-03T21:02:36.869Z,79.19
2023-01-03T21:05:09.133Z,80.00
2023-01-03T21:07:58.698Z,79.57
2023-01-03T21:10:33.411Z,79.75
2023-01-03T21:13:05.759Z,79.24
2023-01-03T21:15:38.877Z,79.50
2023-01-03T21:18:12.357Z,79.55
2023-01-03T21:20:44.940Z,79.10
2023-01-03T21:23:24.679Z,78.66
2023-01-03T21:25:56.879Z,79.51
2023-01-03T21:28:28.976Z,79.63
2023-01-03T21:31:05.393Z,79.07
2023-01-03T21:33:35.067Z,79.23
2023-01-03T21:36:08.780Z,79.40
2023-01-03T21:38:40.855Z,79.60
2023-01-03T21:41:28.120Z,80.19
2023-01-03T21:44:03.434Z,80.31
2023-01-03T21:46:35.578Z,80.02
2023-01-03T21:49:07.554Z,80.26
2023-01-03T21:51:39.597Z,79.46
2023-01-03T21:54:11.766Z,79.27
2023-01-03T21:56:47.170Z,79.59
2023-01-03T21:59:19.472Z,79.00
2023-01-03T22:02:09.410Z,79.50
2023-01-03T22:04:41.719Z,79.67
2023-01-03T22:07:13.601Z,79.87
2023-01-03T22:10:03.156Z,80.20
2023-01-03T22:12:35.203Z,79.76
2023-01-03T22:15:07.915Z,78.14
2023-01-03T22:17:40.453Z,78.18
2023-01-03T22:20:15.224Z,78.17
2023-01-03T22:22:47.759Z,76.07
2023-01-03T22:25:21.688Z,76.19
2023-01-03T22:27:58.564Z,75.69
2023-01-03T22:30:30.654Z,76.35
2023-01-03T22:33:04.410Z,76.12
2023-01-03T22:35:36.305Z,76.95
2023-01-03T22:38:08.259Z,76.38
2023-01-03T22:40:40.376Z,76.68
2023-01-03T22:43:12.668Z,76.24
2023-01-03T22:45:44.705Z,76.41
2023-01-03T22:48:16.815Z,75.36
2023-01-03T22:50:48.906Z,75.80
2023-01-03T22:53:20.950Z,76.03
2023-01-03T22:55:53.080Z,76.28
2023-01-03T22:58:25.134Z,76.17
2023-01-03T23:00:57.252Z,75.98
2023-01-03T23:03:29.451Z,76.29
2023-01-03T23:06:06.931Z,75.69
2023-01-03T23:08:39.305Z,75.71
2023-01-03T23:11:34.192Z,76.53
2023-01-03T23:14:11.236Z,77.27
2023-01-03T23:16:43.320Z,77.38
2023-01-03T23:19:17.784Z,77.74
2023-01-03T23:21:49.763Z,77.90
2023-01-03T23:24:25.367Z,78.41
2023-01-03T23:26:57.396Z,78.65
2023-01-03T23:29:29.288Z,78.81
2023-01-03T23:32:01.627Z,78.99
2023-01-03T23:34:33.585Z,79.24
2023-01-03T23:37:05.549Z,79.37
2023-01-03T23:39:37.474Z,79.53
2023-01-03T23:42:09.477Z,79.78
2023-01-03T23:44:41.446Z,79.97
2023-01-03T23:47:13.437Z,79.93
2023-01-03T23:49:45.672Z,80.04
2023-01-03T23:52:17.629Z,80.28
2023-01-03T23:54:54.627Z,80.40
2023-01-03T23:57:23.475Z,80.23
2023-01-03T23:59:55.415Z,80.17
